createdAt,value
2019-04-20T00:00:42.941Z,59.0463
2019-04-20T00:01:45.310Z,58.7152
2019-04-20T00:02:53.209Z,58.8800
2019-04-20T00:03:56.356Z,60.1038
2019-04-20T00:04:59.297Z,60.3601
2019-04-20T00:06:03.425Z,61.1185
2019-04-20T00:07:06.258Z,61.2390
2019-04-20T00:08:19.227Z,62.0981
2019-04-20T00:09:24.020Z,62.1683
2019-04-20T00:10:27.365Z,62.7527
2019-04-20T00:11:45.886Z,62.3362
2019-04-20T00:12:53.616Z,62.1775
2019-04-20T00:13:55.210Z,62.3377
2019-04-20T00:14:56.499Z,62.4979
2019-04-20T00:15:58.305Z,61.6449
2019-04-20T00:17:01.290Z,61.4481
2019-04-20T00:18:06.694Z,61.5503
2019-04-20T00:19:15.293Z,62.0584
2019-04-20T00:20:25.956Z,61.6281
2019-04-20T00:21:27.293Z,61.0651
2019-04-20T00:22:38.217Z,61.0864
2019-04-20T00:23:43.071Z,60.9232
2019-04-20T00:24:49.649Z,61.3886
2019-04-20T00:26:05.678Z,60.9094
2019-04-20T00:27:28.464Z,60.1221
2019-04-20T00:28:31.607Z,60.1083
2019-04-20T00:29:36.696Z,60.0580
2019-04-20T00:30:48.039Z,59.7192
2019-04-20T00:31:45.945Z,59.3195
2019-04-20T00:32:55.537Z,59.7101
2019-04-20T00:33:59.359Z,59.6765
2019-04-20T00:34:58.302Z,59.5804
2019-04-20T00:36:01.284Z,60.0122
2019-04-20T00:37:05.348Z,60.8270
2019-04-20T00:38:10.293Z,61.1246
2019-04-20T00:39:15.114Z,61.1322
2019-04-20T00:40:21.280Z,60.7340
2019-04-20T00:41:25.720Z,61.3809
2019-04-20T00:42:36.687Z,61.3062
2019-04-20T00:43:39.102Z,61.7319
2019-04-20T00:44:49.593Z,61.9852
2019-04-20T00:46:02.000Z,62.9007
2019-04-20T00:47:14.222Z,63.7934
2019-04-20T00:48:22.669Z,63.6835
2019-04-20T00:49:30.622Z,64.2283
2019-04-20T00:50:40.404Z,64.2878
2019-04-20T00:51:51.148Z,64.2039
2019-04-20T00:52:54.214Z,64.4373
2019-04-20T00:53:51.861Z,64.3092
2019-04-20T00:54:56.273Z,64.2100
2019-04-20T00:55:59.321Z,63.9887
2019-04-20T00:57:13.492Z,63.7797
2019-04-20T00:58:19.308Z,63.9216
2019-04-20T00:59:32.333Z,64.7089
2019-04-20T01:00:40.733Z,65.3117
2019-04-20T01:01:52.348Z,64.9226
2019-04-20T01:02:55.526Z,65.1926
2019-04-20T01:04:10.733Z,65.6016
2019-04-20T01:06:24.813Z,64.7730
2019-04-20T01:07:29.085Z,64.9546
2019-04-20T01:08:23.355Z,64.8676
2019-04-20T01:09:26.523Z,64.6891
2019-04-20T01:10:37.205Z,64.6067
2019-04-20T01:11:42.250Z,64.3427
2019-04-20T01:12:45.847Z,64.7303
2019-04-20T01:13:55.388Z,64.9454
2019-04-20T01:15:02.743Z,64.3595
2019-04-20T01:16:19.491Z,64.6479
2019-04-20T01:17:14.310Z,64.5441
2019-04-20T01:18:17.303Z,64.3275
2019-04-20T01:19:20.570Z,64.4327
2019-04-20T01:20:26.551Z,65.4902
2019-04-20T01:21:33.430Z,65.7328
2019-04-20T01:22:44.637Z,65.0477
2019-04-20T01:23:52.639Z,65.2338
2019-04-20T01:24:54.611Z,65.1423
2019-04-20T01:26:03.958Z,65.3544
2019-04-20T01:27:16.752Z,65.2659
2019-04-20T01:28:35.461Z,65.4215
2019-04-20T01:29:32.381Z,65.0736
2019-04-20T01:30:35.964Z,64.4755
2019-04-20T01:31:52.703Z,64.4327
2019-04-20T01:33:00.764Z,65.4368
2019-04-20T01:34:03.046Z,65.1667
2019-04-20T01:35:14.728Z,65.5589
2019-04-20T01:36:34.960Z,65.0019
2019-04-20T01:37:32.792Z,64.9317
2019-04-20T01:38:45.040Z,64.9973
2019-04-20T01:39:43.109Z,65.6138
2019-04-20T01:40:44.428Z,65.6458
2019-04-20T01:41:47.690Z,65.9342
2019-04-20T01:42:51.202Z,66.1372
2019-04-20T01:43:54.453Z,66.4927
2019-04-20T01:44:58.708Z,66.4759
2019-04-20T01:46:11.314Z,67.2435
2019-04-20T01:47:12.068Z,67.8630
2019-04-20T01:48:24.959Z,67.4464
2019-04-20T01:49:28.638Z,67.8630
2019-04-20T01:50:35.345Z,68.1865
2019-04-20T01:51:53.813Z,67.9942
2019-04-20T01:52:58.263Z,68.0049
2019-04-20T01:54:12.018Z,68.0674
2019-04-20T01:55:24.851Z,67.9683
2019-04-20T01:56:30.249Z,67.5731
2019-04-20T01:57:25.977Z,67.7211
2019-04-20T01:58:50.592Z,68.5802
2019-04-20T01:59:49.338Z,68.5359
2019-04-20T02:00:45.947Z,68.2139
2019-04-20T02:01:55.757Z,68.3803
2019-04-20T02:03:01.942Z,68.3925
2019-04-20T02:04:07.330Z,68.2506
2019-04-20T02:05:20.588Z,68.4337
2019-04-20T02:06:25.071Z,68.2185
2019-04-20T02:07:36.703Z,68.1514
2019-04-20T02:08:38.310Z,67.8584
2019-04-20T02:09:47.483Z,68.0278
2019-04-20T02:10:54.369Z,68.3558
2019-04-20T02:12:06.902Z,68.6992
2019-04-20T02:13:06.682Z,68.6595
2019-04-20T02:14:13.438Z,68.6000
2019-04-20T02:15:28.127Z,68.3757
2019-04-20T02:16:33.606Z,68.5313
2019-04-20T02:17:40.752Z,68.5847
2019-04-20T02:18:58.729Z,68.4123
2019-04-20T02:20:10.450Z,68.2109
2019-04-20T02:21:16.582Z,68.5084
2019-04-20T02:22:15.719Z,68.6366
2019-04-20T02:23:25.371Z,68.7465
2019-04-20T02:24:21.676Z,68.3986
2019-04-20T02:25:24.955Z,68.2826
2019-04-20T02:26:28.320Z,68.9830
2019-04-20T02:27:38.646Z,69.4057
2019-04-20T02:29:06.033Z,70.1747
2019-04-20T02:30:14.166Z,69.7978
2019-04-20T02:31:34.914Z,68.2338
2019-04-20T02:32:40.267Z,69.0898
2019-04-20T02:33:59.305Z,69.3217
2019-04-20T02:36:11.033Z,68.7556
2019-04-20T02:38:22.593Z,68.8136
2019-04-20T02:40:38.846Z,68.3162
2019-04-20T02:41:47.737Z,68.3207
2019-04-20T02:42:51.585Z,68.5405
2019-04-20T02:44:06.016Z,68.9616
2019-04-20T02:45:13.020Z,69.2225
2019-04-20T02:46:12.322Z,69.2073
2019-04-20T02:47:21.413Z,69.4499
2019-04-20T02:48:25.268Z,69.3416
2019-04-20T02:49:42.076Z,70.1137
2019-04-20T02:50:43.260Z,71.0445
2019-04-20T02:53:06.082Z,70.4723
2019-04-20T02:55:14.450Z,71.0384
2019-04-20T02:58:41.562Z,71.0063
2019-04-20T02:59:59.547Z,70.7729
2019-04-20T03:00:44.792Z,71.1025
2019-04-20T03:01:52.167Z,71.0292
2019-04-20T03:02:52.871Z,70.7652
2019-04-20T03:03:52.623Z,71.3588
2019-04-20T03:05:06.727Z,71.2413
2019-04-20T03:06:18.478Z,70.8614
2019-04-20T03:07:23.951Z,70.6645
2019-04-20T03:08:38.223Z,71.6564
2019-04-20T03:09:46.988Z,71.1406
2019-04-20T03:11:00.773Z,71.1299
2019-04-20T03:12:23.835Z,70.9606
2019-04-20T03:13:16.737Z,71.1665
2019-04-20T03:14:18.564Z,71.1452
2019-04-20T03:15:30.203Z,71.4611
2019-04-20T03:16:32.415Z,71.3130
2019-04-20T03:17:46.430Z,71.5740
2019-04-20T03:18:51.205Z,71.3222
2019-04-20T03:19:54.992Z,71.5007
2019-04-20T03:21:12.734Z,71.3420
2019-04-20T03:22:23.622Z,71.0979
2019-04-20T03:23:30.053Z,70.6996
2019-04-20T03:24:38.812Z,70.6126
2019-04-20T03:25:43.076Z,69.2271
2019-04-20T03:26:40.812Z,69.2576
2019-04-20T03:27:51.638Z,69.6193
2019-04-20T03:30:42.408Z,68.8335
2019-04-20T03:35:00.591Z,70.2342
2019-04-20T03:36:01.935Z,70.2098
2019-04-20T03:37:08.488Z,69.4148
2019-04-20T03:38:00.160Z,69.5781
2019-04-20T03:39:16.767Z,69.2317
2019-04-20T03:40:17.607Z,69.5064
2019-04-20T03:41:19.553Z,70.0969
2019-04-20T03:42:20.185Z,69.7154
2019-04-20T03:43:24.446Z,69.3141
2019-04-20T03:44:30.702Z,69.4697
2019-04-20T03:45:42.702Z,69.5460
2019-04-20T03:46:51.802Z,69.2897
2019-04-20T03:48:03.043Z,69.4652
2019-04-20T03:49:21.357Z,69.4224
2019-04-20T03:50:31.925Z,69.1157
2019-04-20T03:51:45.346Z,67.9072
2019-04-20T03:52:43.628Z,67.2847
2019-04-20T03:53:50.326Z,67.8111
2019-04-20T03:54:51.366Z,67.2389
2019-04-20T03:56:02.216Z,67.5929
2019-04-20T03:57:24.777Z,67.7577
2019-04-20T03:58:24.217Z,66.9337
2019-04-20T03:59:27.657Z,67.6005
2019-04-20T04:00:36.205Z,67.0573
2019-04-20T04:02:08.746Z,64.8219
2019-04-20T04:03:09.387Z,64.4389
2019-04-20T04:04:12.159Z,64.5335
2019-04-20T04:05:09.457Z,65.1438
2019-04-20T04:06:09.616Z,66.7735
2019-04-20T04:07:18.510Z,66.2364
2019-04-20T04:08:26.686Z,60.6943
2019-04-20T04:09:32.634Z,60.3418
2019-04-20T04:10:50.507Z,62.5574
2019-04-20T04:11:56.030Z,64.2786
2019-04-20T04:12:49.742Z,61.5091
2019-04-20T04:13:54.599Z,62.9129
2019-04-20T04:14:56.324Z,62.0706
2019-04-20T04:16:04.425Z,62.3041
2019-04-20T04:17:07.455Z,60.2899
2019-04-20T04:18:17.835Z,60.6195
2019-04-20T04:19:25.478Z,59.2386
2019-04-20T04:20:34.380Z,59.2889
2019-04-20T04:21:49.842Z,59.9329
2019-04-20T04:23:00.113Z,60.8133
2019-04-20T04:24:05.515Z,61.2055
2019-04-20T04:25:15.008Z,61.8204
2019-04-20T04:26:27.441Z,62.4155
2019-04-20T04:27:38.559Z,63.1434
2019-04-20T04:28:41.139Z,63.9200
2019-04-20T04:29:51.279Z,64.5441
2019-04-20T04:30:59.937Z,65.2811
2019-04-20T04:32:17.299Z,65.7832
2019-04-20T04:34:22.937Z,66.9459
2019-04-20T04:35:24.423Z,67.7012
2019-04-20T04:36:35.915Z,68.3146
2019-04-20T04:37:45.925Z,69.1066
2019-04-20T04:38:58.874Z,69.7337
2019-04-20T04:40:14.875Z,70.0145
2019-04-20T04:41:13.638Z,70.6493
2019-04-20T04:42:25.117Z,70.7820
2019-04-20T04:43:26.732Z,71.0491
2019-04-20T04:44:30.231Z,71.3283
2019-04-20T04:45:26.541Z,71.3909
2019-04-20T04:46:33.895Z,71.4107
2019-04-20T04:47:39.306Z,71.5801
2019-04-20T04:48:45.978Z,71.9677
2019-04-20T04:50:01.054Z,72.0790
2019-04-20T04:51:03.843Z,72.2576
2019-04-20T04:52:11.161Z,72.2332
2019-04-20T04:53:27.175Z,72.3751
2019-04-20T04:54:34.051Z,72.3980
2019-04-20T04:55:41.767Z,72.7062
2019-04-20T04:56:39.626Z,72.7428
2019-04-20T04:57:43.244Z,72.0790
2019-04-20T04:58:46.756Z,72.2805
2019-04-20T04:59:50.821Z,72.1386
2019-04-20T05:01:03.761Z,72.3034
2019-04-20T05:02:03.410Z,72.6955
2019-04-20T05:03:23.422Z,72.8160
2019-04-20T05:04:33.937Z,73.0770
2019-04-20T05:05:41.360Z,72.9442
2019-04-20T05:06:46.996Z,73.1411
2019-04-20T05:07:52.169Z,73.8079
2019-04-20T05:08:51.378Z,74.0917
2019-04-20T05:09:54.873Z,74.3526
2019-04-20T05:10:58.343Z,74.6334
2019-04-20T05:12:07.209Z,74.9584
2019-04-20T05:13:09.311Z,75.3201
2019-04-20T05:14:20.284Z,75.5322
2019-04-20T05:15:33.671Z,75.7839
2019-04-20T05:16:45.090Z,76.1166
2019-04-20T05:18:00.210Z,76.1990
2019-04-20T05:19:10.484Z,76.4050
2019-04-20T05:20:09.280Z,76.4797
2019-04-20T05:21:24.496Z,76.6018
2019-04-20T05:22:35.149Z,76.9192
2019-04-20T05:23:28.025Z,76.9100
2019-04-20T05:24:41.402Z,77.1786
2019-04-20T05:25:57.081Z,77.3175
2019-04-20T05:27:01.899Z,77.2396
2019-04-20T05:28:08.198Z,77.3587
2019-04-20T05:29:06.764Z,77.1252
2019-04-20T05:30:05.571Z,77.0428
2019-04-20T05:31:10.230Z,76.7956
2019-04-20T05:32:18.545Z,76.4187
2019-04-20T05:33:34.177Z,76.2646
2019-04-20T05:34:54.094Z,76.0616
2019-04-20T05:36:01.860Z,75.8831
2019-04-20T05:37:17.708Z,75.4543
2019-04-20T05:38:23.075Z,74.9081
2019-04-20T05:39:27.745Z,74.2290
2019-04-20T05:40:35.229Z,73.8537
2019-04-20T05:41:38.331Z,73.7224
2019-04-20T05:42:48.662Z,73.3455
2019-04-20T05:43:50.570Z,72.1141
2019-04-20T05:45:01.883Z,72.0562
2019-04-20T05:46:06.251Z,71.9905
2019-04-20T05:47:18.085Z,72.1462
2019-04-20T05:48:20.513Z,71.5236
2019-04-20T05:49:34.515Z,70.6996
2019-04-20T05:50:42.382Z,70.1106
2019-04-20T05:51:47.718Z,69.7337
2019-04-20T05:53:01.676Z,69.7719
2019-04-20T05:54:11.957Z,70.0420
2019-04-20T05:55:16.181Z,69.7520
2019-04-20T05:56:29.346Z,69.8680
2019-04-20T05:57:34.948Z,69.3049
2019-04-20T05:58:38.787Z,69.4087
2019-04-20T05:59:51.377Z,69.7307
2019-04-20T06:01:01.621Z,70.4295
2019-04-20T06:02:08.034Z,70.2876
2019-04-20T06:03:05.673Z,69.6193
2019-04-20T06:04:30.217Z,69.4728
2019-04-20T06:05:28.726Z,68.8502
2019-04-20T06:06:37.681Z,68.2918
2019-04-20T06:07:42.407Z,68.2780
2019-04-20T06:08:56.627Z,67.5273
2019-04-20T06:09:59.682Z,67.3320
2019-04-20T06:11:07.985Z,67.9210
2019-04-20T06:12:19.847Z,67.1900
2019-04-20T06:13:17.791Z,67.0375
2019-04-20T06:14:17.203Z,66.8696
2019-04-20T06:15:42.079Z,66.8421
2019-04-20T06:16:52.776Z,66.5202
2019-04-20T06:17:53.180Z,66.3050
2019-04-20T06:19:18.260Z,65.8976
2019-04-20T06:20:12.748Z,65.4994
2019-04-20T06:21:26.577Z,64.9058
2019-04-20T06:22:31.022Z,64.3610
2019-04-20T06:23:41.529Z,63.3341
2019-04-20T06:24:53.110Z,62.3270
2019-04-20T06:26:03.837Z,61.3428
2019-04-20T06:27:00.826Z,61.0468
2019-04-20T06:28:06.653Z,60.8621
2019-04-20T06:29:16.433Z,61.2665
2019-04-20T06:30:20.896Z,61.1154
2019-04-20T06:31:32.476Z,60.4471
2019-04-20T06:32:40.385Z,60.3235
2019-04-20T06:34:01.478Z,60.4181
2019-04-20T06:34:53.507Z,61.0239
2019-04-20T06:36:14.021Z,60.9491
2019-04-20T06:37:09.872Z,60.9628
2019-04-20T06:38:38.324Z,61.2833
2019-04-20T06:40:59.361Z,60.9308
2019-04-20T06:42:02.250Z,60.4730
2019-04-20T06:42:53.483Z,59.7223
2019-04-20T06:44:03.841Z,59.3698
2019-04-20T06:45:16.221Z,59.2752
2019-04-20T06:46:14.833Z,59.2508
2019-04-20T06:47:27.300Z,59.1226
2019-04-20T06:48:41.372Z,59.2798
2019-04-20T06:49:55.090Z,58.9593
2019-04-20T06:50:44.747Z,59.0402
2019-04-20T06:51:59.324Z,58.8708
2019-04-20T06:53:12.935Z,59.3698
2019-04-20T06:54:05.497Z,59.6963
2019-04-20T06:55:14.250Z,59.0555
2019-04-20T06:56:33.632Z,57.8241
2019-04-20T06:57:36.821Z,57.7539
2019-04-20T06:58:54.474Z,58.3688
2019-04-20T06:59:58.016Z,57.4945
2019-04-20T07:01:03.689Z,56.5499
2019-04-20T07:02:17.278Z,56.6598
2019-04-20T07:03:30.976Z,56.8795
2019-04-20T07:04:38.765Z,57.2747
2019-04-20T07:05:34.681Z,56.6018
2019-04-20T07:09:00.565Z,55.5535
2019-04-20T07:11:19.482Z,54.6105
2019-04-20T07:12:17.194Z,52.6787
2019-04-20T07:13:17.658Z,53.3822
2019-04-20T07:14:28.944Z,53.7728
2019-04-20T07:15:42.747Z,53.7346
2019-04-20T07:16:53.179Z,53.0358
2019-04-20T07:18:06.132Z,52.4636
2019-04-20T07:19:07.882Z,51.6152
2019-04-20T07:20:12.840Z,50.5394
2019-04-20T07:21:37.519Z,49.8253
2019-04-20T07:23:42.290Z,50.6767
2019-04-20T07:24:59.291Z,51.3771
2019-04-20T07:26:02.314Z,51.5007
2019-04-20T07:27:10.380Z,51.0811
2019-04-20T07:28:24.152Z,51.6701
2019-04-20T07:29:26.961Z,52.2835
2019-04-20T07:30:33.454Z,52.6467
2019-04-20T07:31:38.025Z,52.3705
2019-04-20T07:32:52.525Z,52.7062
2019-04-20T07:33:52.105Z,52.7001
2019-04-20T07:35:03.062Z,52.8801
2019-04-20T07:36:15.431Z,53.2189
2019-04-20T07:38:36.584Z,54.6975
2019-04-20T07:39:37.312Z,55.8358
2019-04-20T07:40:38.189Z,56.4263
2019-04-20T07:41:57.257Z,56.1975
2019-04-20T07:42:55.364Z,55.8053
2019-04-20T07:44:28.091Z,55.6909
2019-04-20T07:45:16.952Z,56.0052
2019-04-20T07:46:37.556Z,55.9457
2019-04-20T07:47:34.465Z,56.2112
2019-04-20T07:48:39.528Z,56.1929
2019-04-20T07:49:41.624Z,56.2997
2019-04-20T07:50:44.883Z,55.7275
2019-04-20T07:51:43.867Z,55.9182
2019-04-20T07:53:07.449Z,56.0708
2019-04-20T07:54:24.704Z,54.8837
2019-04-20T07:56:39.388Z,54.5220
2019-04-20T07:57:40.497Z,54.5541
2019-04-20T07:58:40.103Z,54.5541
2019-04-20T07:59:59.079Z,55.2010
2019-04-20T08:01:19.665Z,55.2911
2019-04-20T08:02:28.981Z,53.5348
2019-04-20T08:03:29.366Z,53.2723
2019-04-20T08:04:30.053Z,53.8003
2019-04-20T08:05:31.124Z,54.1619
2019-04-20T08:06:36.889Z,53.8964
2019-04-20T08:07:44.752Z,54.1009
2019-04-20T08:08:58.668Z,54.3542
2019-04-20T08:09:58.472Z,54.0642
2019-04-20T08:11:16.430Z,51.9448
2019-04-20T08:12:34.086Z,52.3110
2019-04-20T08:13:42.094Z,52.2026
2019-04-20T08:14:44.453Z,52.0867
2019-04-20T08:18:07.053Z,52.3812
2019-04-20T08:19:12.281Z,52.8832
2019-04-20T08:20:23.317Z,53.4142
2019-04-20T08:21:28.593Z,53.8994
2019-04-20T08:22:42.079Z,54.1466
2019-04-20T08:23:44.088Z,54.6456
2019-04-20T08:24:48.778Z,54.8165
2019-04-20T08:25:56.076Z,54.8150
2019-04-20T08:26:55.885Z,54.6975
2019-04-20T08:27:59.108Z,54.8653
2019-04-20T08:29:09.186Z,54.0642
2019-04-20T08:30:32.307Z,54.0337
2019-04-20T08:31:33.494Z,53.4234
2019-04-20T08:32:45.220Z,53.0266
2019-04-20T08:34:07.778Z,52.8466
2019-04-20T08:35:10.473Z,52.2713
2019-04-20T08:36:10.803Z,52.8664
2019-04-20T08:37:17.467Z,51.9356
2019-04-20T08:39:46.365Z,51.7678
2019-04-20T08:40:45.807Z,50.0954
2019-04-20T08:41:58.893Z,50.3944
2019-04-20T08:43:11.204Z,50.3975
2019-04-20T08:44:21.429Z,48.4840
2019-04-20T08:45:16.767Z,48.9616
2019-04-20T08:46:20.615Z,48.8197
2019-04-20T08:47:38.195Z,48.8548
2019-04-20T08:48:43.571Z,48.9342
2019-04-20T08:49:49.179Z,48.8838
2019-04-20T08:50:58.439Z,48.9250
2019-04-20T08:52:12.840Z,49.6193
2019-04-20T08:54:16.456Z,49.3629
2019-04-20T08:55:23.390Z,49.4652
2019-04-20T08:56:24.608Z,49.5155
2019-04-20T08:57:22.612Z,49.6788
2019-04-20T08:58:25.296Z,48.7037
2019-04-20T08:59:27.318Z,48.8914
2019-04-20T09:00:38.328Z,48.9891
2019-04-20T09:01:39.438Z,48.5451
2019-04-20T09:02:48.906Z,47.9316
2019-04-20T09:04:03.523Z,46.8452
2019-04-20T09:05:04.919Z,46.8925
2019-04-20T09:06:24.959Z,46.6728
2019-04-20T09:07:22.580Z,46.4485
2019-04-20T09:08:29.848Z,46.2089
2019-04-20T09:09:55.813Z,45.5283
2019-04-20T09:11:00.030Z,44.5792
2019-04-20T09:12:07.584Z,43.7476
2019-04-20T09:13:08.336Z,43.7049
2019-04-20T09:14:05.909Z,43.2441
2019-04-20T09:15:10.572Z,43.0014
2019-04-20T09:16:13.329Z,42.6703
2019-04-20T09:17:24.338Z,42.5422
2019-04-20T09:18:31.292Z,42.5345
2019-04-20T09:19:42.760Z,42.6429
2019-04-20T09:20:50.711Z,42.3148
2019-04-20T09:21:55.147Z,42.2446
2019-04-20T09:23:14.573Z,41.4618
2019-04-20T09:24:32.982Z,41.3748
2019-04-20T09:25:48.393Z,41.5320
2019-04-20T09:26:42.292Z,41.4725
2019-04-20T09:27:38.411Z,40.5463
2019-04-20T09:28:48.000Z,40.6378
2019-04-20T09:30:03.333Z,41.1048
2019-04-20T09:31:11.944Z,41.0010
2019-04-20T09:32:16.914Z,40.9949
2019-04-20T09:33:28.896Z,39.7787
2019-04-20T09:34:41.886Z,40.0015
2019-04-20T09:35:42.923Z,39.2554
2019-04-20T09:36:48.399Z,38.9578
2019-04-20T09:38:01.808Z,39.8413
2019-04-20T09:39:01.175Z,40.7492
2019-04-20T09:40:15.867Z,41.1780
2019-04-20T09:41:35.346Z,41.2573
2019-04-20T09:42:14.312Z,41.4572
2019-04-20T09:43:18.547Z,39.9573
2019-04-20T09:44:25.635Z,38.9685
2019-04-20T09:45:37.354Z,38.0102
2019-04-20T09:46:44.390Z,39.1867
2019-04-20T09:47:51.187Z,38.4863
2019-04-20T09:48:59.012Z,38.5275
2019-04-20T09:50:20.946Z,38.8067
2019-04-20T09:51:30.204Z,38.4375
2019-04-20T09:52:32.201Z,38.4009
2019-04-20T09:53:39.389Z,38.7488
2019-04-20T09:54:45.969Z,38.4039
2019-04-20T09:55:59.490Z,38.2528
2019-04-20T09:57:09.117Z,38.0377
2019-04-20T09:58:12.311Z,38.2620
2019-04-20T09:59:22.038Z,38.7610
2019-04-20T10:00:28.906Z,38.9715
2019-04-20T10:01:31.235Z,36.6552
2019-04-20T10:02:34.472Z,36.7468
2019-04-20T10:03:38.818Z,37.5296
2019-04-20T10:04:42.289Z,37.2595
2019-04-20T10:05:45.483Z,37.5479
2019-04-20T10:06:49.613Z,38.0972
2019-04-20T10:07:56.912Z,38.0621
2019-04-20T10:09:03.477Z,38.5870
2019-04-20T10:10:17.860Z,38.9395
2019-04-20T10:11:17.264Z,38.5595
2019-04-20T10:12:21.727Z,36.9970
2019-04-20T10:13:25.312Z,36.0220
2019-04-20T10:14:28.882Z,35.8129
2019-04-20T10:15:32.990Z,34.9004
2019-04-20T10:16:37.739Z,34.6853
2019-04-20T10:17:41.481Z,33.7346
2019-04-20T10:18:48.113Z,33.7514
2019-04-20T10:19:53.431Z,33.4127
2019-04-20T10:20:56.280Z,32.3323
2019-04-20T10:22:02.415Z,33.6370
2019-04-20T10:23:06.697Z,33.9635
2019-04-20T10:24:10.528Z,33.3684
2019-04-20T10:25:13.317Z,32.9915
2019-04-20T10:26:16.464Z,32.2881
2019-04-20T10:27:20.570Z,33.1884
2019-04-20T10:28:25.530Z,34.3847
2019-04-20T10:29:28.370Z,33.9498
2019-04-20T10:30:32.466Z,33.6202
2019-04-20T10:31:42.644Z,34.3786
2019-04-20T10:32:47.235Z,35.7900
2019-04-20T10:33:51.445Z,36.2371
2019-04-20T10:34:54.876Z,36.6278
2019-04-20T10:35:59.442Z,36.2234
2019-04-20T10:37:03.749Z,35.7931
2019-04-20T10:38:07.528Z,36.2325
2019-04-20T10:39:10.877Z,34.3709
2019-04-20T10:40:27.973Z,33.3944
2019-04-20T10:41:36.135Z,32.5948
2019-04-20T10:42:30.267Z,32.6451
2019-04-20T10:43:33.354Z,33.8857
2019-04-20T10:44:36.921Z,34.2382
2019-04-20T10:45:41.224Z,34.3236
2019-04-20T10:46:44.929Z,34.8058
2019-04-20T10:47:48.278Z,32.4239
2019-04-20T10:48:53.304Z,32.7367
2019-04-20T10:49:58.887Z,32.3522
2019-04-20T10:51:03.131Z,30.2052
2019-04-20T10:52:07.485Z,29.3797
2019-04-20T10:53:10.343Z,29.1325
2019-04-20T10:54:14.223Z,29.7917
2019-04-20T10:55:18.599Z,31.9707
2019-04-20T10:56:21.443Z,32.1172
2019-04-20T10:57:25.670Z,32.0546
2019-04-20T10:58:29.587Z,32.3278
2019-04-20T10:59:32.389Z,32.6818
2019-04-20T11:00:35.589Z,32.2423
2019-04-20T11:01:38.317Z,32.3339
2019-04-20T11:02:43.940Z,32.4559
2019-04-20T11:03:48.275Z,31.5496
2019-04-20T11:04:52.538Z,32.5307
2019-04-20T11:05:56.415Z,32.4605
2019-04-20T11:07:00.722Z,32.7825
2019-04-20T11:08:04.393Z,31.1986
2019-04-20T11:09:08.745Z,32.0180
2019-04-20T11:10:19.792Z,32.0348
2019-04-20T11:11:25.218Z,31.5038
2019-04-20T11:12:28.469Z,30.8690
2019-04-20T11:13:31.342Z,31.2978
2019-04-20T11:14:37.212Z,31.9615
2019-04-20T11:15:44.427Z,32.3003
2019-04-20T11:16:48.462Z,32.4254
2019-04-20T11:17:51.435Z,31.8929
2019-04-20T11:18:55.497Z,31.8029
2019-04-20T11:19:59.188Z,31.1192
2019-04-20T11:21:03.525Z,31.8807
2019-04-20T11:22:06.316Z,30.1076
2019-04-20T11:23:10.629Z,29.4530
2019-04-20T11:24:14.371Z,30.0267
2019-04-20T11:25:17.345Z,31.7281
2019-04-20T11:26:20.344Z,31.8288
2019-04-20T11:27:23.304Z,32.0256
2019-04-20T11:28:26.326Z,31.3771
2019-04-20T11:29:29.290Z,32.9824
2019-04-20T11:30:32.342Z,31.8990
2019-04-20T11:31:39.513Z,31.4595
2019-04-20T11:32:44.331Z,31.3039
2019-04-20T11:33:48.025Z,29.9748
2019-04-20T11:34:51.325Z,30.0298
2019-04-20T11:35:54.988Z,30.7713
2019-04-20T11:36:59.233Z,31.5145
2019-04-20T11:38:02.946Z,31.3542
2019-04-20T11:39:07.127Z,31.5358
2019-04-20T11:40:10.918Z,31.2627
2019-04-20T11:41:22.753Z,30.7683
2019-04-20T11:42:23.544Z,30.1320
2019-04-20T11:43:26.285Z,30.6889
2019-04-20T11:44:31.457Z,30.9606
2019-04-20T11:45:38.422Z,30.8080
2019-04-20T11:46:42.803Z,29.5689
2019-04-20T11:47:47.400Z,30.5608
2019-04-20T11:48:51.707Z,31.0094
2019-04-20T11:49:55.461Z,30.8827
2019-04-20T11:50:58.353Z,30.9239
2019-04-20T11:52:01.521Z,30.6172
2019-04-20T11:53:05.265Z,29.8207
2019-04-20T11:54:08.377Z,29.3019
2019-04-20T11:55:12.519Z,30.2174
2019-04-20T11:56:23.806Z,29.1752
2019-04-20T11:57:23.313Z,27.4678
2019-04-20T11:58:26.306Z,27.9286
2019-04-20T11:59:30.346Z,27.6310
2019-04-20T12:00:34.290Z,27.3152
2019-04-20T12:01:47.651Z,27.6951
2019-04-20T12:02:53.560Z,27.8462
2019-04-20T12:04:04.110Z,27.9927
2019-04-20T12:05:17.357Z,28.0156
2019-04-20T12:06:13.306Z,28.5939
2019-04-20T12:07:19.223Z,28.3192
2019-04-20T12:08:22.941Z,28.4825
2019-04-20T12:09:26.342Z,28.5374
2019-04-20T12:10:30.049Z,28.9174
2019-04-20T12:11:47.533Z,28.4642
2019-04-20T12:12:47.293Z,28.5664
2019-04-20T12:13:50.307Z,29.1325
2019-04-20T12:14:54.671Z,29.3217
2019-04-20T12:15:59.360Z,28.4138
2019-04-20T12:17:03.672Z,28.0720
2019-04-20T12:18:07.583Z,27.6127
2019-04-20T12:19:10.553Z,26.8070
2019-04-20T12:20:14.533Z,26.9139
2019-04-20T12:21:17.286Z,28.2048
2019-04-20T12:22:21.506Z,29.1249
2019-04-20T12:23:24.528Z,29.0425
2019-04-20T12:24:27.310Z,29.0227
2019-04-20T12:25:34.173Z,29.4850
2019-04-20T12:26:38.681Z,29.2927
2019-04-20T12:27:48.806Z,29.2149
2019-04-20T12:28:49.686Z,28.8624
2019-04-20T12:29:52.277Z,29.5079
2019-04-20T12:31:03.053Z,29.2699
2019-04-20T12:32:05.431Z,29.3812
2019-04-20T12:33:11.501Z,29.8238
2019-04-20T12:34:14.317Z,28.6992
2019-04-20T12:35:18.163Z,29.1844
2019-04-20T12:36:21.319Z,29.7414
2019-04-20T12:37:25.068Z,29.6910
2019-04-20T12:38:28.374Z,29.0929
2019-04-20T12:39:31.308Z,29.6925
2019-04-20T12:40:35.417Z,28.7724
2019-04-20T12:41:45.345Z,28.9189
2019-04-20T12:42:46.635Z,29.8024
2019-04-20T12:43:49.815Z,30.2541
2019-04-20T12:44:53.427Z,30.0542
2019-04-20T12:45:55.853Z,29.8604
2019-04-20T12:46:59.642Z,29.2424
2019-04-20T12:48:03.773Z,28.9540
2019-04-20T12:49:07.671Z,29.9794
2019-04-20T12:50:11.872Z,29.5186
2019-04-20T12:51:15.583Z,30.4097
2019-04-20T12:52:18.583Z,30.5669
2019-04-20T12:53:22.344Z,30.4616
2019-04-20T12:54:25.326Z,30.2098
2019-04-20T12:55:28.401Z,30.4982
2019-04-20T12:56:32.663Z,29.8985
2019-04-20T12:57:36.552Z,30.4738
2019-04-20T12:58:42.968Z,29.7887
2019-04-20T12:59:48.712Z,29.4804
2019-04-20T13:00:52.429Z,29.2241
2019-04-20T13:01:55.490Z,29.2241
2019-04-20T13:02:59.150Z,29.5583
2019-04-20T13:04:04.499Z,29.8238
2019-04-20T13:05:09.427Z,29.7704
2019-04-20T13:06:12.276Z,30.3059
2019-04-20T13:07:15.627Z,31.0048
2019-04-20T13:08:29.595Z,30.3746
2019-04-20T13:09:26.397Z,30.5119
2019-04-20T13:10:29.612Z,30.5608
2019-04-20T13:11:44.353Z,30.1961
2019-04-20T13:12:40.679Z,29.7932
2019-04-20T13:13:44.339Z,29.6101
2019-04-20T13:14:48.443Z,30.5562
2019-04-20T13:15:52.149Z,29.6452
2019-04-20T13:16:56.825Z,29.5308
2019-04-20T13:18:01.245Z,29.5583
2019-04-20T13:19:05.608Z,30.4295
2019-04-20T13:20:08.307Z,29.1875
2019-04-20T13:21:11.349Z,30.0496
2019-04-20T13:22:14.839Z,29.5583
2019-04-20T13:23:20.144Z,29.7734
2019-04-20T13:24:23.324Z,29.8573
2019-04-20T13:25:26.380Z,30.0893
2019-04-20T13:26:29.329Z,30.3960
2019-04-20T13:27:32.304Z,30.7347
2019-04-20T13:28:35.310Z,29.4713
2019-04-20T13:29:38.395Z,29.5689
2019-04-20T13:30:41.893Z,29.5140
2019-04-20T13:31:45.272Z,29.9290
2019-04-20T13:32:48.332Z,29.6056
2019-04-20T13:33:51.641Z,29.8695
2019-04-20T13:34:54.366Z,29.8161
2019-04-20T13:35:58.473Z,29.7246
2019-04-20T13:37:02.256Z,29.1966
2019-04-20T13:38:05.301Z,29.1478
2019-04-20T13:39:08.324Z,28.8502
2019-04-20T13:40:11.335Z,29.0089
2019-04-20T13:41:15.668Z,28.4916
2019-04-20T13:42:24.556Z,28.7663
2019-04-20T13:43:27.961Z,28.6748
2019-04-20T13:44:32.399Z,28.6885
2019-04-20T13:45:35.282Z,28.5145
2019-04-20T13:46:38.887Z,28.4016
2019-04-20T13:47:43.208Z,27.8141
2019-04-20T13:48:46.842Z,27.9347
2019-04-20T13:49:51.348Z,28.4932
2019-04-20T13:50:56.074Z,28.3146
2019-04-20T13:51:59.321Z,28.8045